Time,TemperatureF,DewpointF,PressureIn,WindDirection,WindDirectionDegrees,WindSpeedMPH,WindSpeedGustMPH,Humidity,HourlyPrecipIn,Conditions,Clouds,dailyrainin,SoftwareType,DateUTC
2013-06-28 00:00:00,64.7,64.7,29.72,North,0,0.0,0.0,99,-99.99,,,-99.99,PWS SA v1.10,2013-06-28 04:00:00,
2013-06-28 00:02:00,64.7,64.6,29.72,North,0,0.0,0.0,99,-99.99,,,-99.99,PWS SA v1.10,2013-06-28 04:02:00,
2013-06-28 00:04:00,64.7,64.8,29.72,North,0,0.0,0.0,99,-99.99,,,-99.99,PWS SA v1.10,2013-06-28 04:04:00,
2013-06-28 00:08:00,64.7,64.7,29.72,North,0,0.0,0.0,99,-99.99,,,-99.99,PWS SA v1.10,2013-06-28 04:08:00,
2013-06-28 00:14:00,64.6,64.7,29.72,North,0,0.0,0.0,99,-99.99,,,-99.99,PWS SA v1.10,2013-06-28 04:14:00,
2013-06-28 00:18:00,64.7,64.7,29.72,North,0,0.0,0.0,99,-99.99,,,-99.99,PWS SA v1.10,2013-06-28 04:18:00,
2013-06-28 00:24:00,64.6,64.7,29.71,North,0,0.0,0.0,99,-99.99,,,-99.99,PWS SA v1.10,2013-06-28 04:24:00,
2013-06-28 00:30:00,64.6,64.6,29.71,North,0,0.0,1.0,99,-99.99,,,-99.99,PWS SA v1.10,2013-06-28 04:30:00,
2013-06-28 00:36:00,64.6,64.8,29.70,North,0,0.0,6.0,99,-99.99,,,-99.99,PWS SA v1.10,2013-06-28 04:36:00,
2013-06-28 00:42:00,64.6,64.7,29.69,North,0,0.0,6.0,99,-99.99,,,-99.99,PWS SA v1.10,2013-06-28 04:42:00,
2013-06-28 00:48:00,64.7,64.8,29.70,North,0,0.0,0.0,99,-99.99,,,-99.99,PWS SA v1.10,2013-06-28 04:48:00,
2013-06-28 00:54:00,64.6,65.0,29.69,North,0,0.0,3.0,100,-99.99,,,-99.99,PWS SA v1.10,2013-06-28 04:54:00,
2013-06-28 01:00:00,64.7,65.2,29.69,NNE,22,1.7,3.0,100,-99.99,,,-99.99,PWS SA v1.10,2013-06-28 05:00:00,
2013-06-28 01:06:00,64.6,64.8,29.69,North,0,0.0,3.0,100,-99.99,,,-99.99,PWS SA v1.10,2013-06-28 05:06:00,
2013-06-28 01:12:00,64.6,64.8,29.69,North,0,0.0,1.0,100,-99.99,,,-99.99,PWS SA v1.10,2013-06-28 05:12:00,
2013-06-28 01:18:00,64.7,65.1,29.69,North,0,0.0,1.0,100,-99.99,,,-99.99,PWS SA v1.10,2013-06-28 05:18:00,
2013-06-28 01:24:00,64.7,65.0,29.69,North,0,0.0,0.0,100,-99.99,,,-99.99,PWS SA v1.10,2013-06-28 05:24:00,
2013-06-28 01:30:00,64.7,65.0,29.68,North,0,0.0,3.0,100,-99.99,,,-99.99,PWS SA v1.10,2013-06-28 05:30:00,
2013-06-28 01:36:00,64.6,64.8,29.67,North,0,0.0,3.0,100,-99.99,,,-99.99,PWS SA v1.10,2013-06-28 05:36:00,
2013-06-28 01:42:00,64.5,65.0,29.67,North,0,0.0,5.0,100,-99.99,,,-99.99,PWS SA v1.10,2013-06-28 05:42:00,
2013-06-28 01:48:00,64.6,65.0,29.66,North,0,0.0,5.0,100,-99.99,,,-99.99,PWS SA v1.10,2013-06-28 05:48:00,
2013-06-28 01:54:00,64.6,64.9,29.64,North,0,0.0,3.0,100,-99.99,,,-99.99,PWS SA v1.10,2013-06-28 05:54:00,
2013-06-28 02:00:00,64.5,65.0,29.65,North,0,0.0,3.0,100,-99.99,,,-99.99,PWS SA v1.10,2013-06-28 06:00:00,
2013-06-28 02:06:00,64.5,65.1,29.66,North,0,0.0,1.0,100,-99.99,,,-99.99,PWS SA v1.10,2013-06-28 06:06:00,
2013-06-28 02:12:00,64.4,64.8,29.67,North,0,0.0,3.0,100,-99.99,,,-99.99,PWS SA v1.10,2013-06-28 06:12:00,
2013-06-28 02:18:00,64.2,64.6,29.65,North,0,0.0,3.0,100,-99.99,,,-99.99,PWS SA v1.10,2013-06-28 06:18:00,
2013-06-28 02:24:00,64.1,64.3,29.65,North,0,0.0,3.0,100,-99.99,,,-99.99,PWS SA v1.10,2013-06-28 06:24:00,
2013-06-28 02:30:00,64.0,64.0,29.64,North,0,0.0,3.0,100,-99.99,,,-99.99,PWS SA v1.10,2013-06-28 06:30:00,
2013-06-28 02:36:00,64.0,64.1,29.64,North,0,0.0,0.0,100,-99.99,,,-99.99,PWS SA v1.10,2013-06-28 06:36:00,
2013-06-28 02:42:00,64.0,64.1,29.63,North,0,0.0,0.0,100,-99.99,,,-99.99,PWS SA v1.10,2013-06-28 06:42:00,
2013-06-28 02:48:00,64.0,64.1,29.63,North,0,0.0,0.0,100,-99.99,,,-99.99,PWS SA v1.10,2013-06-28 06:48:00,
2013-06-28 02:54:00,64.0,64.1,29.63,North,0,0.0,1.0,100,-99.99,,,-99.99,PWS SA v1.10,2013-06-28 06:54:00,
2013-06-28 03:00:00,64.0,64.0,29.62,North,0,0.0,1.0,100,-99.99,,,-99.99,PWS SA v1.10,2013-06-28 07:00:00,
2013-06-28 03:06:00,63.7,64.0,29.62,North,0,0.0,0.0,100,-99.99,,,-99.99,PWS SA v1.10,2013-06-28 07:06:00,
2013-06-28 03:12:00,63.7,63.8,29.62,North,0,0.0,0.0,100,-99.99,,,-99.99,PWS SA v1.10,2013-06-28 07:12:00,
2013-06-28 03:18:00,63.6,63.7,29.62,North,359,1.7,3.0,100,-99.99,,,-99.99,PWS SA v1.10,2013-06-28 07:18:00,
2013-06-28 03:24:00,63.5,63.6,29.61,North,0,0.0,3.0,100,-99.99,,,-99.99,PWS SA v1.10,2013-06-28 07:24:00,
2013-06-28 03:30:00,63.3,63.6,29.61,North,0,0.0,3.0,100,-99.99,,,-99.99,PWS SA v1.10,2013-06-28 07:30:00,
2013-06-28 03:36:00,63.2,63.4,29.61,North,0,0.0,3.0,100,-99.99,,,-99.99,PWS SA v1.10,2013-06-28 07:36:00,
2013-06-28 03:42:00,63.3,63.6,29.60,North,0,0.0,3.0,100,-99.99,,,-99.99,PWS SA v1.10,2013-06-28 07:42:00,
2013-06-28 03:48:00,63.3,63.5,29.60,NE,37,1.7,1.7,100,-99.99,,,-99.99,PWS SA v1.10,2013-06-28 07:48:00,
2013-06-28 03:54:00,63.3,63.4,29.60,North,0,0.0,1.0,100,-99.99,,,-99.99,PWS SA v1.10,2013-06-28 07:54:00,
2013-06-28 04:00:00,63.3,63.5,29.60,North,0,0.0,3.0,100,-99.99,,,-99.99,PWS SA v1.10,2013-06-28 08:00:00,
2013-06-28 04:06:00,63.5,63.7,29.60,ESE,107,1.7,3.0,100,-99.99,,,-99.99,PWS SA v1.10,2013-06-28 08:06:00,
2013-06-28 04:12:00,63.4,63.7,29.61,North,0,0.0,3.0,100,-99.99,,,-99.99,PWS SA v1.10,2013-06-28 08:12:00,
2013-06-28 04:18:00,63.5,63.8,29.61,North,0,0.0,5.0,100,-99.99,,,-99.99,PWS SA v1.10,2013-06-28 08:18:00,
2013-06-28 04:24:00,63.6,63.9,29.61,North,0,0.0,5.0,100,-99.99,,,-99.99,PWS SA v1.10,2013-06-28 08:24:00,
2013-06-28 04:30:00,63.6,63.8,29.60,North,0,0.0,0.0,100,-99.99,,,-99.99,PWS SA v1.10,2013-06-28 08:30:00,
2013-06-28 04:36:00,63.7,63.9,29.60,North,0,0.0,1.0,100,-99.99,,,-99.99,PWS SA v1.10,2013-06-28 08:36:00,
2013-06-28 04:42:00,63.5,63.7,29.60,North,0,0.0,1.0,100,-99.99,,,-99.99,PWS SA v1.10,2013-06-28 08:42:00,
2013-06-28 04:48:00,63.5,64.0,29.59,North,0,0.0,1.0,100,-99.99,,,-99.99,PWS SA v1.10,2013-06-28 08:48:00,
2013-06-28 04:54:00,63.6,63.8,29.59,North,0,0.0,1.0,100,-99.99,,,-99.99,PWS SA v1.10,2013-06-28 08:54:00,
2013-06-28 05:00:00,63.6,63.7,29.59,North,0,0.0,1.0,100,-99.99,,,-99.99,PWS SA v1.10,2013-06-28 09:00:00,
2013-06-28 05:06:00,63.6,64.0,29.59,North,0,0.0,0.0,100,-99.99,,,-99.99,PWS SA v1.10,2013-06-28 09:06:00,
2013-06-28 05:12:00,63.6,63.9,29.58,North,0,0.0,1.0,100,-99.99,,,-99.99,PWS SA v1.10,2013-06-28 09:12:00,
2013-06-28 05:18:00,63.7,63.8,29.59,North,0,0.0,1.0,100,-99.99,,,-99.99,PWS SA v1.10,2013-06-28 09:18:00,
2013-06-28 05:24:00,63.7,63.9,29.59,North,0,0.0,3.0,100,-99.99,,,-99.99,PWS SA v1.10,2013-06-28 09:24:00,
2013-06-28 05:30:00,63.7,63.9,29.58,North,0,0.0,3.0,100,-99.99,,,-99.99,PWS SA v1.10,2013-06-28 09:30:00,
2013-06-28 05:36:00,63.8,64.1,29.58,North,0,0.0,3.0,100,-99.99,,,-99.99,PWS SA v1.10,2013-06-28 09:36:00,
2013-06-28 05:42:00,63.8,64.0,29.58,North,0,0.0,0.0,100,-99.99,,,-99.99,PWS SA v1.10,2013-06-28 09:42:00,
2013-06-28 05:48:00,63.8,64.0,29.58,North,0,0.0,0.0,100,-99.99,,,-99.99,PWS SA v1.10,2013-06-28 09:48:00,
2013-06-28 05:54:00,64.0,64.2,29.57,North,0,0.0,0.0,100,-99.99,,,-99.99,PWS SA v1.10,2013-06-28 09:54:00,
2013-06-28 06:00:00,64.1,64.2,29.57,North,0,0.0,0.0,100,-99.99,,,-99.99,PWS SA v1.10,2013-06-28 10:00:00,
2013-06-28 06:06:00,64.2,64.5,29.57,North,0,0.0,0.0,100,-99.99,,,-99.99,PWS SA v1.10,2013-06-28 10:06:00,
2013-06-28 06:12:00,64.2,64.4,29.57,North,0,0.0,0.0,100,-99.99,,,-99.99,PWS SA v1.10,2013-06-28 10:12:00,
2013-06-28 06:18:00,64.3,64.5,29.56,North,0,0.0,0.0,100,-99.99,,,-99.99,PWS SA v1.10,2013-06-28 10:18:00,
2013-06-28 06:24:00,64.4,64.6,29.56,North,0,0.0,0.0,100,-99.99,,,-99.99,PWS SA v1.10,2013-06-28 10:24:00,
2013-06-28 06:30:00,64.5,64.7,29.56,North,0,0.0,0.0,100,-99.99,,,-99.99,PWS SA v1.10,2013-06-28 10:30:00,
2013-06-28 06:36:00,64.6,65.0,29.56,North,0,0.0,0.0,100,-99.99,,,-99.99,PWS SA v1.10,2013-06-28 10:36:00,
2013-06-28 06:42:00,64.6,64.8,29.55,North,0,0.0,0.0,100,-99.99,,,-99.99,PWS SA v1.10,2013-06-28 10:42:00,
2013-06-28 06:48:00,64.7,65.1,29.55,North,0,0.0,0.0,100,-99.99,,,-99.99,PWS SA v1.10,2013-06-28 10:48:00,
2013-06-28 06:54:00,65.0,65.1,29.55,North,0,0.0,0.0,100,-99.99,,,-99.99,PWS SA v1.10,2013-06-28 10:54:00,
2013-06-28 07:00:00,65.1,65.2,29.56,North,0,0.0,3.0,100,-99.99,,,-99.99,PWS SA v1.10,2013-06-28 11:00:00,
2013-06-28 07:06:00,65.3,65.3,29.55,North,0,0.0,3.0,100,-99.99,,,-99.99,PWS SA v1.10,2013-06-28 11:06:00,
2013-06-28 07:12:00,65.4,65.8,29.54,North,0,0.0,1.0,100,-99.99,,,-99.99,PWS SA v1.10,2013-06-28 11:12:00,
2013-06-28 07:18:00,65.5,65.5,29.55,North,0,0.0,0.0,100,-99.99,,,-99.99,PWS SA v1.10,2013-06-28 11:18:00,
2013-06-28 07:24:00,65.8,65.9,29.55,North,0,0.0,0.0,100,-99.99,,,-99.99,PWS SA v1.10,2013-06-28 11:24:00,
2013-06-28 07:30:00,65.8,66.0,29.54,North,0,0.0,0.0,100,-99.99,,,-99.99,PWS SA v1.10,2013-06-28 11:30:00,
2013-06-28 07:36:00,65.9,66.0,29.55,North,0,0.0,0.0,100,-99.99,,,-99.99,PWS SA v1.10,2013-06-28 11:36:00,
2013-06-28 07:42:00,66.0,66.2,29.54,North,0,0.0,0.0,100,-99.99,,,-99.99,PWS SA v1.10,2013-06-28 11:42:00,
2013-06-28 07:48:00,66.2,66.1,29.54,North,0,0.0,0.0,100,-99.99,,,-99.99,PWS SA v1.10,2013-06-28 11:48:00,
2013-06-28 07:54:00,66.8,66.9,29.54,North,0,0.0,0.0,100,-99.99,,,-99.99,PWS SA v1.10,2013-06-28 11:54:00,
2013-06-28 08:00:00,67.0,66.9,29.53,North,0,0.0,0.0,100,-99.99,,,-99.99,PWS SA v1.10,2013-06-28 12:00:00,
2013-06-28 08:06:00,67.1,67.1,29.54,North,0,0.0,0.0,100,-99.99,,,-99.99,PWS SA v1.10,2013-06-28 12:06:00,
2013-06-28 08:12:00,67.3,67.4,29.53,North,0,0.0,0.0,100,-99.99,,,-99.99,PWS SA v1.10,2013-06-28 12:12:00,
2013-06-28 08:18:00,67.6,67.7,29.53,North,0,0.0,0.0,100,-99.99,,,-99.99,PWS SA v1.10,2013-06-28 12:18:00,
2013-06-28 08:24:00,67.9,67.9,29.53,North,0,0.0,0.0,100,-99.99,,,-99.99,PWS SA v1.10,2013-06-28 12:24:00,
2013-06-28 08:30:00,68.1,68.2,29.53,North,0,0.0,1.0,100,-99.99,,,-99.99,PWS SA v1.10,2013-06-28 12:30:00,
2013-06-28 08:36:00,68.3,68.4,29.52,North,0,0.0,1.0,100,-99.99,,,-99.99,PWS SA v1.10,2013-06-28 12:36:00,
2013-06-28 08:42:00,68.6,68.6,29.52,North,0,0.0,0.0,100,-99.99,,,-99.99,PWS SA v1.10,2013-06-28 12:42:00,
2013-06-28 08:48:00,68.8,68.7,29.52,North,0,0.0,0.0,100,-99.99,,,-99.99,PWS SA v1.10,2013-06-28 12:48:00,
2013-06-28 08:54:00,68.9,69.0,29.52,North,0,0.0,0.0,100,-99.99,,,-99.99,PWS SA v1.10,2013-06-28 12:54:00,
2013-06-28 09:00:00,69.0,69.1,29.52,North,0,0.0,0.0,100,-99.99,,,-99.99,PWS SA v1.10,2013-06-28 13:00:00,
2013-06-28 09:06:00,69.1,69.2,29.52,North,0,0.0,0.0,100,-99.99,,,-99.99,PWS SA v1.10,2013-06-28 13:06:00,
2013-06-28 09:12:00,69.5,69.5,29.51,North,0,0.0,3.0,100,-99.99,,,-99.99,PWS SA v1.10,2013-06-28 13:12:00,
2013-06-28 09:18:00,69.7,70.0,29.50,SE,129,1.7,3.0,100,-99.99,,,-99.99,PWS SA v1.10,2013-06-28 13:18:00,
2013-06-28 09:24:00,70.1,70.1,29.51,SE,128,1.7,3.0,100,-99.99,,,-99.99,PWS SA v1.10,2013-06-28 13:24:00,
2013-06-28 09:30:00,70.7,70.6,29.50,North,0,0.0,3.0,100,-99.99,,,-99.99,PWS SA v1.10,2013-06-28 13:30:00,
2013-06-28 09:36:00,70.9,70.9,29.51,North,0,0.0,3.0,100,-99.99,,,-99.99,PWS SA v1.10,2013-06-28 13:36:00,
2013-06-28 09:42:00,71.3,71.3,29.51,SSE,159,1.7,1.7,100,-99.99,,,-99.99,PWS SA v1.10,2013-06-28 13:42:00,
2013-06-28 09:48:00,71.5,71.5,29.50,North,0,0.0,1.0,100,-99.99,,,-99.99,PWS SA v1.10,2013-06-28 13:48:00,
2013-06-28 09:54:00,72.0,72.0,29.50,SE,144,1.7,3.0,100,-99.99,,,-99.99,PWS SA v1.10,2013-06-28 13:54:00,
2013-06-28 10:00:00,72.3,72.4,29.50,West,262,1.7,3.0,100,-99.99,,,-99.99,PWS SA v1.10,2013-06-28 14:00:00,
2013-06-28 10:06:00,72.7,72.8,29.50,North,0,0.0,1.0,100,-99.99,,,-99.99,PWS SA v1.10,2013-06-28 14:06:00,
2013-06-28 10:12:00,72.7,72.7,29.50,North,0,0.0,3.0,100,-99.99,,,-99.99,PWS SA v1.10,2013-06-28 14:12:00,
2013-06-28 10:18:00,72.7,73.0,29.49,North,0,0.0,3.0,100,-99.99,,,-99.99,PWS SA v1.10,2013-06-28 14:18:00,
2013-06-28 10:24:00,72.6,72.8,29.50,North,0,0.0,3.0,100,-99.99,,,-99.99,PWS SA v1.10,2013-06-28 14:24:00,
2013-06-28 10:30:00,72.7,72.7,29.50,North,0,0.0,3.0,100,-99.99,,,-99.99,PWS SA v1.10,2013-06-28 14:30:00,
2013-06-28 10:36:00,73.0,72.8,29.49,SE,130,5.1,5.1,100,-99.99,,,-99.99,PWS SA v1.10,2013-06-28 14:36:00,
2013-06-28 10:42:00,73.5,73.3,29.49,South,174,1.7,5.0,100,-99.99,,,-99.99,PWS SA v1.10,2013-06-28 14:42:00,
2013-06-28 10:48:00,73.6,73.2,29.49,North,0,0.0,5.0,99,-99.99,,,-99.99,PWS SA v1.10,2013-06-28 14:48:00,
2013-06-28 10:54:00,73.6,73.5,29.49,North,0,0.0,3.0,99,-99.99,,,-99.99,PWS SA v1.10,2013-06-28 14:54:00,
2013-06-28 11:00:00,73.4,72.9,29.49,North,0,0.0,3.0,98,-99.99,,,-99.99,PWS SA v1.10,2013-06-28 15:00:00,
2013-06-28 11:06:00,73.3,72.8,29.49,North,0,0.0,1.0,98,-99.99,,,-99.99,PWS SA v1.10,2013-06-28 15:06:00,
2013-06-28 11:12:00,73.3,72.6,29.49,SW,218,5.1,5.1,98,-99.99,,,-99.99,PWS SA v1.10,2013-06-28 15:12:00,
2013-06-28 11:18:00,73.3,72.8,29.49,North,0,0.0,5.0,98,-99.99,,,-99.99,PWS SA v1.10,2013-06-28 15:18:00,
2013-06-28 11:24:00,73.5,72.9,29.50,North,0,0.0,5.0,98,-99.99,,,-99.99,PWS SA v1.10,2013-06-28 15:24:00,
2013-06-28 11:30:00,73.6,73.0,29.50,North,0,0.0,3.0,99,-99.99,,,-99.99,PWS SA v1.10,2013-06-28 15:30:00,
2013-06-28 11:36:00,73.6,73.5,29.50,North,0,0.0,5.0,99,-99.99,,,-99.99,PWS SA v1.10,2013-06-28 15:36:00,
2013-06-28 11:42:00,73.8,73.0,29.50,North,0,0.0,5.0,97,-99.99,,,-99.99,PWS SA v1.10,2013-06-28 15:42:00,
2013-06-28 11:48:00,74.6,73.9,29.50,SSW,212,3.4,5.0,98,-99.99,,,-99.99,PWS SA v1.10,2013-06-28 15:48:00,
2013-06-28 11:54:00,75.2,73.7,29.50,SSE,163,6.8,6.8,95,-99.99,,,-99.99,PWS SA v1.10,2013-06-28 15:54:00,
2013-06-28 12:00:00,75.1,73.5,29.49,SE,141,1.7,6.0,95,-99.99,,,-99.99,PWS SA v1.10,2013-06-28 16:00:00,
2013-06-28 12:06:00,75.3,73.1,29.49,East,88,3.4,6.0,93,-99.99,,,-99.99,PWS SA v1.10,2013-06-28 16:06:00,
2013-06-28 12:12:00,76.0,73.3,29.49,NW,308,5.1,6.0,92,-99.99,,,-99.99,PWS SA v1.10,2013-06-28 16:12:00,
2013-06-28 12:18:00,76.7,73.4,29.49,North,0,0.0,6.0,90,-99.99,,,-99.99,PWS SA v1.10,2013-06-28 16:18:00,
2013-06-28 12:24:00,77.5,74.8,29.49,NW,317,1.7,5.0,92,-99.99,,,-99.99,PWS SA v1.10,2013-06-28 16:24:00,
2013-06-28 12:30:00,78.1,74.7,29.47,North,0,0.0,5.0,89,-99.99,,,-99.99,PWS SA v1.10,2013-06-28 16:30:00,
2013-06-28 12:36:00,78.5,73.8,29.47,West,267,3.4,5.0,86,-99.99,,,-99.99,PWS SA v1.10,2013-06-28 16:36:00,
2013-06-28 12:42:00,78.9,74.6,29.47,West,270,3.4,6.0,86,-99.99,,,-99.99,PWS SA v1.10,2013-06-28 16:42:00,
2013-06-28 12:48:00,79.6,74.5,29.47,North,0,0.0,6.0,85,-99.99,,,-99.99,PWS SA v1.10,2013-06-28 16:48:00,
2013-06-28 12:54:00,79.8,73.8,29.47,SE,134,5.1,6.0,82,-99.99,,,-99.99,PWS SA v1.10,2013-06-28 16:54:00,
2013-06-28 13:00:00,79.5,74.0,29.47,SSE,164,3.4,6.0,83,-99.99,,,-99.99,PWS SA v1.10,2013-06-28 17:00:00,
2013-06-28 13:06:00,80.1,74.9,29.47,NNW,343,1.7,6.0,84,-99.99,,,-99.99,PWS SA v1.10,2013-06-28 17:06:00,
2013-06-28 13:12:00,79.7,73.9,29.47,WSW,243,1.7,5.0,83,-99.99,,,-99.99,PWS SA v1.10,2013-06-28 17:12:00,
2013-06-28 13:18:00,80.6,74.2,29.48,North,0,0.0,6.0,81,-99.99,,,-99.99,PWS SA v1.10,2013-06-28 17:18:00,
2013-06-28 13:24:00,80.3,73.8,29.48,WNW,303,1.7,6.0,81,-99.99,,,-99.99,PWS SA v1.10,2013-06-28 17:24:00,
2013-06-28 13:30:00,80.8,74.5,29.47,West,262,1.7,6.0,82,-99.99,,,-99.99,PWS SA v1.10,2013-06-28 17:30:00,
2013-06-28 13:36:00,80.5,73.8,29.47,WNW,298,5.1,6.0,79,-99.99,,,-99.99,PWS SA v1.10,2013-06-28 17:36:00,
2013-06-28 13:42:00,81.5,73.8,29.46,North,0,0.0,10.0,78,-99.99,,,-99.99,PWS SA v1.10,2013-06-28 17:42:00,
2013-06-28 13:48:00,81.8,75.0,29.47,SE,129,1.7,10.0,80,-99.99,,,-99.99,PWS SA v1.10,2013-06-28 17:48:00,
2013-06-28 13:54:00,81.4,73.7,29.46,North,0,0.0,12.0,78,-99.99,,,-99.99,PWS SA v1.10,2013-06-28 17:54:00,
2013-06-28 14:00:00,81.8,74.0,29.46,SSW,212,3.4,12.0,77,-99.99,,,-99.99,PWS SA v1.10,2013-06-28 18:00:00,
2013-06-28 14:06:00,82.5,74.9,29.46,East,99,5.1,5.1,79,-99.99,,,-99.99,PWS SA v1.10,2013-06-28 18:06:00,
2013-06-28 14:12:00,82.7,73.5,29.46,SW,235,1.7,6.0,74,-99.99,,,-99.99,PWS SA v1.10,2013-06-28 18:12:00,
2013-06-28 14:18:00,82.7,73.8,29.46,South,173,1.7,6.0,75,-99.99,,,-99.99,PWS SA v1.10,2013-06-28 18:18:00,
2013-06-28 14:24:00,83.3,74.1,29.46,North,0,0.0,6.0,74,-99.99,,,-99.99,PWS SA v1.10,2013-06-28 18:24:00,
2013-06-28 14:30:00,82.4,73.5,29.46,SE,129,10.2,13.0,74,-99.99,,,-99.99,PWS SA v1.10,2013-06-28 18:30:00,
2013-06-28 14:36:00,82.6,74.2,29.45,SE,139,10.2,13.0,76,-99.99,,,-99.99,PWS SA v1.10,2013-06-28 18:36:00,
2013-06-28 14:42:00,83.1,74.5,29.45,SE,144,1.7,13.0,76,-99.99,,,-99.99,PWS SA v1.10,2013-06-28 18:42:00,
2013-06-28 14:48:00,83.7,74.3,29.44,North,0,0.0,10.0,74,-99.99,,,-99.99,PWS SA v1.10,2013-06-28 18:48:00,
2013-06-28 14:54:00,84.7,75.3,29.44,ENE,76,1.7,6.0,74,-99.99,,,-99.99,PWS SA v1.10,2013-06-28 18:54:00,
2013-06-28 15:00:00,84.3,73.5,29.45,NW,305,12.0,12.0,71,-99.99,,,-99.99,PWS SA v1.10,2013-06-28 19:00:00,
2013-06-28 15:06:00,84.6,74.3,29.45,South,181,12.0,12.0,71,-99.99,,,-99.99,PWS SA v1.10,2013-06-28 19:06:00,
2013-06-28 15:12:00,84.1,73.3,29.44,North,0,0.0,12.0,71,-99.99,,,-99.99,PWS SA v1.10,2013-06-28 19:12:00,
2013-06-28 15:18:00,83.9,72.9,29.45,SSE,159,5.1,12.0,70,-99.99,,,-99.99,PWS SA v1.10,2013-06-28 19:18:00,
2013-06-28 15:24:00,82.9,72.3,29.44,West,272,6.8,6.8,70,-99.99,,,-99.99,PWS SA v1.10,2013-06-28 19:24:00,
2013-06-28 15:30:00,82.2,71.5,29.45,SSE,155,5.1,6.0,70,-99.99,,,-99.99,PWS SA v1.10,2013-06-28 19:30:00,
2013-06-28 15:36:00,81.9,72.0,29.45,North,0,0.0,6.0,72,-99.99,,,-99.99,PWS SA v1.10,2013-06-28 19:36:00,
2013-06-28 15:42:00,82.2,72.8,29.45,North,0,0.0,5.0,74,-99.99,,,-99.99,PWS SA v1.10,2013-06-28 19:42:00,
2013-06-28 15:48:00,81.8,72.0,29.44,North,0,0.0,5.0,73,-99.99,,,-99.99,PWS SA v1.10,2013-06-28 19:48:00,
2013-06-28 15:54:00,81.8,72.4,29.44,SSE,158,5.1,5.1,73,-99.99,,,-99.99,PWS SA v1.10,2013-06-28 19:54:00,
2013-06-28 16:00:00,81.6,71.4,29.44,West,261,3.4,8.0,71,-99.99,,,-99.99,PWS SA v1.10,2013-06-28 20:00:00,
2013-06-28 16:06:00,81.7,71.6,29.45,SSW,208,3.4,8.0,72,-99.99,,,-99.99,PWS SA v1.10,2013-06-28 20:06:00,
2013-06-28 16:12:00,81.7,71.5,29.44,North,0,0.0,6.0,72,-99.99,,,-99.99,PWS SA v1.10,2013-06-28 20:12:00,
2013-06-28 16:22:00,81.5,71.1,29.44,South,185,1.7,5.0,71,-99.99,,,-99.99,PWS SA v1.10,2013-06-28 20:22:00,
2013-06-28 16:28:00,81.5,72.6,29.45,North,0,0.0,5.0,75,-99.99,,,-99.99,PWS SA v1.10,2013-06-28 20:28:00,
2013-06-28 16:34:00,81.2,71.3,29.44,North,0,0.0,5.0,72,-99.99,,,-99.99,PWS SA v1.10,2013-06-28 20:34:00,
2013-06-28 16:40:00,81.5,72.2,29.44,North,0,0.0,5.0,74,-99.99,,,-99.99,PWS SA v1.10,2013-06-28 20:40:00,
2013-06-28 16:46:00,81.5,72.3,29.44,SSE,160,3.4,5.0,74,-99.99,,,-99.99,PWS SA v1.10,2013-06-28 20:46:00,
2013-06-28 16:52:00,81.1,71.3,29.44,NNW,348,3.4,3.4,72,-99.99,,,-99.99,PWS SA v1.10,2013-06-28 20:52:00,
2013-06-28 16:58:00,81.3,71.6,29.44,East,91,6.8,6.8,73,-99.99,,,-99.99,PWS SA v1.10,2013-06-28 20:58:00,
2013-06-28 17:04:00,81.1,71.2,29.45,ESE,110,1.7,6.0,72,-99.99,,,-99.99,PWS SA v1.10,2013-06-28 21:04:00,
2013-06-28 17:10:00,80.7,71.6,29.45,WSW,249,1.7,6.0,74,-99.99,,,-99.99,PWS SA v1.10,2013-06-28 21:10:00,
2013-06-28 17:16:00,80.4,71.3,29.45,SSW,201,3.4,5.0,74,-99.99,,,-99.99,PWS SA v1.10,2013-06-28 21:16:00,
2013-06-28 17:22:00,80.5,70.7,29.45,WNW,287,5.1,5.1,73,-99.99,,,-99.99,PWS SA v1.10,2013-06-28 21:22:00,
2013-06-28 17:28:00,80.8,70.6,29.45,NE,44,3.4,5.0,72,-99.99,,,-99.99,PWS SA v1.10,2013-06-28 21:28:00,
2013-06-28 17:34:00,80.0,70.4,29.45,North,0,0.0,5.0,73,-99.99,,,-99.99,PWS SA v1.10,2013-06-28 21:34:00,
2013-06-28 17:40:00,79.7,70.5,29.45,West,275,3.4,3.4,74,-99.99,,,-99.99,PWS SA v1.10,2013-06-28 21:40:00,
2013-06-28 17:46:00,79.7,70.3,29.45,WNW,303,3.4,5.0,74,-99.99,,,-99.99,PWS SA v1.10,2013-06-28 21:46:00,
2013-06-28 17:52:00,79.9,70.7,29.45,North,0,0.0,5.0,74,-99.99,,,-99.99,PWS SA v1.10,2013-06-28 21:52:00,
2013-06-28 17:58:00,79.7,70.7,29.45,North,0,0.0,5.0,74,-99.99,,,-99.99,PWS SA v1.10,2013-06-28 21:58:00,
2013-06-28 18:04:00,79.6,71.1,29.44,North,0,0.0,3.0,75,-99.99,,,-99.99,PWS SA v1.10,2013-06-28 22:04:00,
2013-06-28 18:10:00,79.7,71.2,29.45,North,0,0.0,5.0,75,-99.99,,,-99.99,PWS SA v1.10,2013-06-28 22:10:00,
2013-06-28 18:16:00,79.7,71.4,29.45,North,0,0.0,5.0,76,-99.99,,,-99.99,PWS SA v1.10,2013-06-28 22:16:00,
2013-06-28 18:22:00,79.5,71.2,29.45,North,353,3.4,5.0,76,-99.99,,,-99.99,PWS SA v1.10,2013-06-28 22:22:00,
2013-06-28 18:28:00,79.0,71.5,29.45,North,0,0.0,10.0,78,-99.99,,,-99.99,PWS SA v1.10,2013-06-28 22:28:00,
2013-06-28 18:34:00,78.5,71.5,29.45,North,0,0.0,10.0,78,-99.99,,,-99.99,PWS SA v1.10,2013-06-28 22:34:00,
2013-06-28 18:40:00,78.2,71.2,29.45,ESE,120,1.7,10.0,79,-99.99,,,-99.99,PWS SA v1.10,2013-06-28 22:40:00,
2013-06-28 18:46:00,77.7,71.5,29.45,North,0,0.0,1.0,80,-99.99,,,-99.99,PWS SA v1.10,2013-06-28 22:46:00,
2013-06-28 18:52:00,77.4,71.6,29.46,North,0,0.0,5.0,82,-99.99,,,-99.99,PWS SA v1.10,2013-06-28 22:52:00,
2013-06-28 18:58:00,77.2,71.5,29.45,North,6,1.7,5.0,82,-99.99,,,-99.99,PWS SA v1.10,2013-06-28 22:58:00,
2013-06-28 19:04:00,77.1,71.7,29.47,North,0,0.0,5.0,84,-99.99,,,-99.99,PWS SA v1.10,2013-06-28 23:04:00,
2013-06-28 19:10:00,76.7,71.6,29.48,North,0,0.0,3.0,84,-99.99,,,-99.99,PWS SA v1.10,2013-06-28 23:10:00,
2013-06-28 19:16:00,76.4,71.3,29.48,SW,228,1.7,8.0,84,-99.99,,,-99.99,PWS SA v1.10,2013-06-28 23:16:00,
2013-06-28 19:22:00,75.9,71.1,29.48,North,0,0.0,8.0,85,-99.99,,,-99.99,PWS SA v1.10,2013-06-28 23:22:00,
2013-06-28 19:28:00,75.8,71.3,29.48,North,0,0.0,1.0,85,-99.99,,,-99.99,PWS SA v1.10,2013-06-28 23:28:00,
2013-06-28 19:34:00,75.5,71.0,29.48,North,0,0.0,1.0,86,-99.99,,,-99.99,PWS SA v1.10,2013-06-28 23:34:00,
2013-06-28 19:40:00,75.1,70.7,29.47,North,0,0.0,3.0,86,-99.99,,,-99.99,PWS SA v1.10,2013-06-28 23:40:00,
2013-06-28 19:46:00,74.8,71.1,29.47,North,0,0.0,3.0,88,-99.99,,,-99.99,PWS SA v1.10,2013-06-28 23:46:00,
2013-06-28 19:52:00,74.6,70.8,29.47,SSE,161,1.7,3.0,88,-99.99,,,-99.99,PWS SA v1.10,2013-06-28 23:52:00,
2013-06-28 19:58:00,74.3,70.5,29.46,SE,139,3.4,3.4,88,-99.99,,,-99.99,PWS SA v1.10,2013-06-28 23:58:00,
2013-06-28 20:04:00,74.1,70.6,29.47,North,0,0.0,3.0,89,-99.99,,,-99.99,PWS SA v1.10,2013-06-29 00:04:00,
2013-06-28 20:10:00,73.9,70.5,29.47,North,0,0.0,5.0,89,-99.99,,,-99.99,PWS SA v1.10,2013-06-29 00:10:00,
2013-06-28 20:16:00,73.7,70.4,29.47,North,0,0.0,5.0,90,-99.99,,,-99.99,PWS SA v1.10,2013-06-29 00:16:00,
2013-06-28 20:22:00,73.5,70.6,29.48,North,0,0.0,3.0,90,-99.99,,,-99.99,PWS SA v1.10,2013-06-29 00:22:00,
2013-06-28 20:28:00,73.5,70.6,29.48,North,0,0.0,3.0,90,-99.99,,,-99.99,PWS SA v1.10,2013-06-29 00:28:00,
2013-06-28 20:34:00,73.1,70.5,29.49,ESE,117,1.7,6.0,91,-99.99,,,-99.99,PWS SA v1.10,2013-06-29 00:34:00,
2013-06-28 20:40:00,72.9,70.2,29.48,North,0,0.0,6.0,91,-99.99,,,-99.99,PWS SA v1.10,2013-06-29 00:40:00,
2013-06-28 20:46:00,72.6,70.1,29.48,North,0,0.0,6.0,91,-99.99,,,-99.99,PWS SA v1.10,2013-06-29 00:46:00,
2013-06-28 20:52:00,72.5,70.0,29.49,North,0,0.0,1.0,92,-99.99,,,-99.99,PWS SA v1.10,2013-06-29 00:52:00,
2013-06-28 20:58:00,72.3,69.9,29.49,North,0,0.0,5.0,92,-99.99,,,-99.99,PWS SA v1.10,2013-06-29 00:58:00,
2013-06-28 21:04:00,72.1,69.8,29.50,South,189,1.7,5.0,92,-99.99,,,-99.99,PWS SA v1.10,2013-06-29 01:04:00,
2013-06-28 21:10:00,71.9,69.7,29.49,North,0,0.0,5.0,93,-99.99,,,-99.99,PWS SA v1.10,2013-06-29 01:10:00,
2013-06-28 21:16:00,71.9,69.8,29.50,South,185,1.7,8.0,93,-99.99,,,-99.99,PWS SA v1.10,2013-06-29 01:16:00,
2013-06-28 21:22:00,71.8,69.5,29.50,North,0,0.0,8.0,93,-99.99,,,-99.99,PWS SA v1.10,2013-06-29 01:22:00,
2013-06-28 21:28:00,71.7,69.5,29.51,SE,136,5.1,5.1,93,-99.99,,,-99.99,PWS SA v1.10,2013-06-29 01:28:00,
2013-06-28 21:34:00,71.7,69.6,29.50,SSE,151,1.7,5.0,93,-99.99,,,-99.99,PWS SA v1.10,2013-06-29 01:34:00,
2013-06-28 21:40:00,71.7,69.6,29.51,North,0,0.0,5.0,93,-99.99,,,-99.99,PWS SA v1.10,2013-06-29 01:40:00,
2013-06-28 21:46:00,71.7,69.5,29.51,WSW,249,1.7,3.0,93,-99.99,,,-99.99,PWS SA v1.10,2013-06-29 01:46:00,
2013-06-28 21:52:00,71.5,69.5,29.51,North,0,0.0,1.0,93,-99.99,,,-99.99,PWS SA v1.10,2013-06-29 01:52:00,
2013-06-28 21:58:00,71.4,69.4,29.50,North,0,0.0,1.0,93,-99.99,,,-99.99,PWS SA v1.10,2013-06-29 01:58:00,
2013-06-28 22:04:00,71.3,69.4,29.50,North,0,0.0,3.0,94,-99.99,,,-99.99,PWS SA v1.10,2013-06-29 02:04:00,
2013-06-28 22:10:00,71.3,69.5,29.50,North,0,0.0,5.0,94,-99.99,,,-99.99,PWS SA v1.10,2013-06-29 02:10:00,
2013-06-28 22:16:00,71.2,69.5,29.50,North,0,0.0,5.0,94,-99.99,,,-99.99,PWS SA v1.10,2013-06-29 02:16:00,
2013-06-28 22:22:00,71.2,69.5,29.51,North,0,0.0,3.0,94,-99.99,,,-99.99,PWS SA v1.10,2013-06-29 02:22:00,
2013-06-28 22:28:00,71.3,69.5,29.51,North,0,0.0,3.0,94,-99.99,,,-99.99,PWS SA v1.10,2013-06-29 02:28:00,
2013-06-28 22:34:00,71.3,69.5,29.51,North,0,0.0,3.0,94,-99.99,,,-99.99,PWS SA v1.10,2013-06-29 02:34:00,
2013-06-28 22:40:00,71.3,69.2,29.51,North,0,0.0,3.0,93,-99.99,,,-99.99,PWS SA v1.10,2013-06-29 02:40:00,
2013-06-28 22:46:00,71.2,69.0,29.51,North,0,0.0,3.0,93,-99.99,,,-99.99,PWS SA v1.10,2013-06-29 02:46:00,
2013-06-28 22:52:00,71.1,69.0,29.52,North,0,0.0,10.0,93,-99.99,,,-99.99,PWS SA v1.10,2013-06-29 02:52:00,
2013-06-28 22:58:00,71.0,69.1,29.52,SSE,167,1.7,10.0,93,-99.99,,,-99.99,PWS SA v1.10,2013-06-29 02:58:00,
2013-06-28 23:04:00,70.9,68.9,29.50,SW,225,6.8,6.8,93,-99.99,,,-99.99,PWS SA v1.10,2013-06-29 03:04:00,
2013-06-28 23:10:00,70.9,69.0,29.51,SSE,154,3.4,6.0,93,-99.99,,,-99.99,PWS SA v1.10,2013-06-29 03:10:00,
2013-06-28 23:16:00,70.9,69.0,29.51,SSE,154,3.4,6.0,93,-99.99,,,-99.99,PWS SA v1.10,2013-06-29 03:16:00,
2013-06-28 23:22:00,70.9,68.9,29.50,SW,236,1.7,3.0,94,-99.99,,,-99.99,PWS SA v1.10,2013-06-29 03:22:00,
2013-06-28 23:28:00,70.7,69.0,29.50,North,0,0.0,1.0,94,-99.99,,,-99.99,PWS SA v1.10,2013-06-29 03:28:00,
2013-06-28 23:34:00,70.7,68.8,29.50,North,0,0.0,1.0,94,-99.99,,,-99.99,PWS SA v1.10,2013-06-29 03:34:00,
2013-06-28 23:40:00,70.7,68.8,29.50,North,0,0.0,0.0,94,-99.99,,,-99.99,PWS SA v1.10,2013-06-29 03:40:00,
2013-06-28 23:46:00,70.9,69.0,29.50,SSW,213,3.4,3.4,94,-99.99,,,-99.99,PWS SA v1.10,2013-06-29 03:46:00,
2013-06-28 23:52:00,71.0,69.2,29.51,North,0,0.0,3.0,94,-99.99,,,-99.99,PWS SA v1.10,2013-06-29 03:52:00,
2013-06-28 23:58:00,71.2,69.5,29.51,North,0,0.0,3.0,94,-99.99,,,-99.99,PWS SA v1.10,2013-06-29 03:58:00,